createdAt,value
2018-04-10T00:00:15.813Z,91.89
2018-04-10T00:01:15.780Z,92.56
2018-04-10T00:02:15.759Z,92.46
2018-04-10T00:03:15.737Z,92.36
2018-04-10T00:04:15.748Z,92.27
2018-04-10T00:05:15.717Z,91.99
2018-04-10T00:06:15.687Z,92.36
2018-04-10T00:07:15.662Z,92.36
2018-04-10T00:08:15.633Z,92.94
2018-04-10T00:09:15.608Z,92.84
2018-04-10T00:10:15.597Z,93.04
2018-04-10T00:11:15.601Z,93.41
2018-04-10T00:12:15.593Z,93.23
2018-04-10T00:13:15.558Z,93.41
2018-04-10T00:14:15.511Z,93.32
2018-04-10T00:15:15.535Z,93.13
2018-04-10T00:16:15.510Z,93.13
2018-04-10T00:17:15.473Z,93.41
2018-04-10T00:18:15.435Z,93.13
2018-04-10T00:19:15.406Z,93.41
2018-04-10T00:20:15.415Z,92.84
2018-04-10T00:21:15.376Z,93.04
2018-04-10T00:22:15.393Z,92.65
2018-04-10T00:23:15.338Z,92.65
2018-04-10T00:24:15.345Z,92.84
2018-04-10T00:25:15.353Z,93.51
2018-04-10T00:26:15.287Z,93.60
2018-04-10T00:27:15.281Z,93.60
2018-04-10T00:28:15.234Z,93.13
2018-04-10T00:29:15.211Z,93.60
2018-04-10T00:30:15.199Z,93.70
2018-04-10T00:31:15.200Z,93.51
2018-04-10T00:32:15.162Z,93.32
2018-04-10T00:33:15.129Z,93.23
2018-04-10T00:34:15.114Z,93.41
2018-04-10T00:35:15.094Z,93.41
2018-04-10T00:36:15.088Z,93.60
2018-04-10T00:37:15.065Z,93.32
2018-04-10T00:38:15.054Z,93.23
2018-04-10T00:39:15.037Z,93.32
2018-04-10T00:40:14.997Z,93.51
2018-04-10T00:41:14.985Z,93.51
2018-04-10T00:42:14.997Z,93.51
2018-04-10T00:43:14.933Z,94.08
2018-04-10T00:44:14.920Z,93.79
2018-04-10T00:45:14.914Z,94.18
2018-04-10T00:46:14.871Z,93.98
2018-04-10T00:47:14.859Z,93.98
2018-04-10T00:48:14.858Z,93.89
2018-04-10T00:49:14.819Z,93.98
2018-04-10T00:50:14.787Z,93.79
2018-04-10T00:51:14.777Z,94.08
2018-04-10T00:52:14.773Z,94.18
2018-04-10T00:53:14.753Z,94.18
2018-04-10T00:54:14.714Z,94.18
2018-04-10T00:55:14.697Z,93.89
2018-04-10T00:56:14.716Z,93.70
2018-04-10T00:57:14.690Z,93.89
2018-04-10T00:58:14.638Z,93.13
2018-04-10T00:59:14.621Z,93.41
2018-04-10T01:00:14.606Z,93.32
2018-04-10T01:01:14.591Z,93.51
2018-04-10T01:02:14.554Z,93.98
2018-04-10T01:03:14.542Z,94.18
2018-04-10T01:04:14.531Z,93.98
2018-04-10T01:05:14.485Z,93.98
2018-04-10T01:06:14.499Z,93.70
2018-04-10T01:07:14.455Z,93.79
2018-04-10T01:08:14.483Z,94.08
2018-04-10T01:09:14.462Z,94.22
2018-04-10T01:10:14.404Z,94.37
2018-04-10T01:11:14.390Z,93.84
2018-04-10T01:12:14.361Z,94.22
2018-04-10T01:13:14.342Z,94.56
2018-04-10T01:14:14.323Z,94.74
2018-04-10T01:15:14.338Z,94.98
2018-04-10T01:16:14.295Z,95.03
2018-04-10T01:17:14.252Z,95.03
2018-04-10T01:18:14.261Z,94.93
2018-04-10T01:19:14.240Z,95.03
2018-04-10T01:20:14.206Z,95.12
2018-04-10T01:21:14.193Z,95.03
2018-04-10T01:22:14.158Z,95.22
2018-04-10T01:23:14.165Z,95.12
2018-04-10T01:24:14.146Z,94.98
2018-04-10T01:25:14.115Z,94.32
2018-04-10T01:26:14.109Z,94.60
2018-04-10T01:27:14.086Z,94.70
2018-04-10T01:28:14.060Z,94.22
2018-04-10T01:29:14.011Z,94.22
2018-04-10T01:30:14.008Z,95.08
2018-04-10T01:31:14.005Z,94.98
2018-04-10T01:32:13.963Z,95.08
2018-04-10T01:33:13.979Z,94.70
2018-04-10T01:34:13.938Z,94.98
2018-04-10T01:35:13.919Z,95.08
2018-04-10T01:36:13.908Z,94.51
2018-04-10T01:37:13.881Z,94.42
2018-04-10T01:38:13.889Z,95.36
2018-04-10T01:39:13.812Z,94.79
2018-04-10T01:40:13.785Z,95.56
2018-04-10T01:41:13.765Z,95.17
2018-04-10T01:42:13.770Z,95.17
2018-04-10T01:43:13.763Z,95.36
2018-04-10T01:44:13.764Z,95.17
2018-04-10T01:45:13.711Z,94.42
2018-04-10T01:46:13.701Z,94.79
2018-04-10T01:47:13.691Z,95.17
2018-04-10T01:48:13.632Z,95.08
2018-04-10T01:49:13.630Z,95.17
2018-04-10T01:50:13.612Z,94.89
2018-04-10T01:51:13.589Z,94.98
2018-04-10T01:52:13.552Z,94.79
2018-04-10T01:53:13.535Z,94.98
2018-04-10T01:54:13.508Z,95.17
2018-04-10T01:55:13.489Z,94.70
2018-04-10T01:56:13.476Z,95.08
2018-04-10T01:57:13.481Z,95.36
2018-04-10T01:58:13.468Z,94.60
2018-04-10T01:59:13.413Z,95.08
2018-04-10T02:00:13.397Z,94.89
2018-04-10T02:01:13.400Z,95.46
2018-04-10T02:02:13.344Z,95.56
2018-04-10T02:03:13.375Z,96.22
2018-04-10T02:04:13.327Z,96.12
2018-04-10T02:05:13.330Z,95.94
2018-04-10T02:06:13.306Z,96.12
2018-04-10T02:07:13.282Z,96.12
2018-04-10T02:08:13.295Z,96.50
2018-04-10T02:09:13.239Z,95.94
2018-04-10T02:10:13.220Z,95.84
2018-04-10T02:11:13.167Z,95.84
2018-04-10T02:12:13.168Z,96.03
2018-04-10T02:13:13.137Z,96.41
2018-04-10T02:14:13.110Z,96.22
2018-04-10T02:15:13.140Z,95.79
2018-04-10T02:16:13.109Z,95.94
2018-04-10T02:17:13.045Z,95.36
2018-04-10T02:18:13.030Z,96.50
2018-04-10T02:19:13.011Z,96.26
2018-04-10T02:20:13.004Z,96.36
2018-04-10T02:21:12.970Z,97.03
2018-04-10T02:22:12.943Z,96.93
2018-04-10T02:23:12.939Z,96.93
2018-04-10T02:24:12.898Z,97.27
2018-04-10T02:25:12.899Z,96.93
2018-04-10T02:26:12.865Z,97.22
2018-04-10T02:27:12.873Z,96.93
2018-04-10T02:28:12.860Z,96.84
2018-04-10T02:29:12.823Z,97.50
2018-04-10T02:30:12.803Z,96.65
2018-04-10T02:31:12.781Z,97.08
2018-04-10T02:32:12.749Z,96.84
2018-04-10T02:33:12.741Z,96.17
2018-04-10T02:34:12.720Z,96.93
2018-04-10T02:35:12.691Z,96.93
2018-04-10T02:36:12.668Z,97.03
2018-04-10T02:37:12.644Z,97.88
2018-04-10T02:38:12.675Z,98.07
2018-04-10T02:39:12.605Z,97.64
2018-04-10T02:40:12.610Z,97.78
2018-04-10T02:41:12.587Z,98.03
2018-04-10T02:42:12.584Z,98.03
2018-04-10T02:43:12.556Z,97.78
2018-04-10T02:44:12.503Z,98.22
2018-04-10T02:45:12.481Z,97.60
2018-04-10T02:46:12.472Z,97.88
2018-04-10T02:47:12.432Z,97.69
2018-04-10T02:48:12.458Z,97.88
2018-04-10T02:49:12.401Z,97.31
2018-04-10T02:50:12.393Z,97.12
2018-04-10T02:51:12.354Z,97.55
2018-04-10T02:52:12.394Z,97.60
2018-04-10T02:53:12.335Z,96.84
2018-04-10T02:54:12.351Z,96.93
2018-04-10T02:55:12.298Z,96.84
2018-04-10T02:56:12.248Z,96.74
2018-04-10T02:57:12.254Z,96.93
2018-04-10T02:58:12.242Z,96.26
2018-04-10T02:59:12.212Z,96.17
2018-04-10T03:00:12.179Z,96.36
2018-04-10T03:01:12.182Z,96.17
2018-04-10T03:02:12.142Z,96.45
2018-04-10T03:03:12.156Z,97.03
2018-04-10T03:04:12.114Z,96.93
2018-04-10T03:05:12.086Z,96.84
2018-04-10T03:06:12.052Z,96.65
2018-04-10T03:07:12.058Z,97.12
2018-04-10T03:08:12.019Z,97.97
2018-04-10T03:09:12.029Z,97.88
2018-04-10T03:10:11.969Z,97.31
2018-04-10T03:11:11.983Z,97.60
2018-04-10T03:12:11.952Z,97.78
2018-04-10T03:13:11.924Z,97.78
2018-04-10T03:14:11.899Z,97.31
2018-04-10T03:15:11.900Z,97.22
2018-04-10T03:16:11.851Z,96.74
2018-04-10T03:17:11.827Z,97.12
2018-04-10T03:18:11.803Z,97.22
2018-04-10T03:19:11.789Z,97.31
2018-04-10T03:20:11.770Z,96.93
2018-04-10T03:21:11.747Z,97.22
2018-04-10T03:22:11.739Z,97.03
2018-04-10T03:23:11.727Z,97.17
2018-04-10T03:24:11.705Z,96.98
2018-04-10T03:25:11.665Z,97.36
2018-04-10T03:26:11.646Z,97.64
2018-04-10T03:27:11.664Z,97.64
2018-04-10T03:28:11.647Z,97.83
2018-04-10T03:29:11.587Z,97.92
2018-04-10T03:30:11.576Z,98.40
2018-04-10T03:31:11.555Z,98.12
2018-04-10T03:32:11.542Z,97.83
2018-04-10T03:33:11.536Z,97.64
2018-04-10T03:34:11.500Z,97.45
2018-04-10T03:35:11.475Z,97.36
2018-04-10T03:36:11.438Z,97.27
2018-04-10T03:37:11.418Z,97.45
2018-04-10T03:38:11.455Z,97.36
2018-04-10T03:39:11.448Z,97.36
2018-04-10T03:40:11.406Z,97.17
2018-04-10T03:41:11.354Z,97.74
2018-04-10T03:42:14.776Z,97.27
2018-04-10T03:43:11.315Z,97.45
2018-04-10T03:44:11.296Z,97.83
2018-04-10T03:47:06.839Z,97.07
2018-04-10T03:48:06.647Z,96.79
2018-04-10T03:49:07.217Z,96.79
2018-04-10T03:50:06.446Z,96.98
2018-04-10T03:51:06.472Z,97.41
2018-04-10T03:52:06.348Z,97.69
2018-04-10T03:53:07.187Z,98.12
2018-04-10T03:54:07.187Z,98.07
2018-04-10T03:55:07.160Z,97.50
2018-04-10T03:56:06.944Z,97.55
2018-04-10T03:57:06.238Z,97.31
2018-04-10T03:58:07.037Z,97.31
2018-04-10T03:59:06.587Z,97.31
2018-04-10T04:00:06.538Z,97.12
2018-04-10T04:01:06.498Z,97.02
2018-04-10T04:02:06.496Z,97.50
2018-04-10T04:03:06.473Z,97.60
2018-04-10T04:04:06.128Z,98.54
2018-04-10T04:05:06.451Z,98.73
2018-04-10T04:06:06.017Z,99.11
2018-04-10T04:07:05.995Z,99.02
2018-04-10T04:08:05.926Z,99.30
2018-04-10T04:09:05.889Z,99.11
2018-04-10T04:10:05.864Z,99.02
2018-04-10T04:11:05.851Z,99.30
2018-04-10T04:12:05.843Z,99.58
2018-04-10T04:13:05.839Z,99.97
2018-04-10T04:14:05.807Z,99.68
2018-04-10T04:15:05.782Z,99.11
2018-04-10T04:16:05.801Z,99.30
2018-04-10T04:17:05.738Z,99.11
2018-04-10T04:18:05.744Z,99.21
2018-04-10T04:19:05.690Z,98.83
2018-04-10T04:20:05.667Z,98.83
2018-04-10T04:21:05.670Z,98.73
2018-04-10T04:22:05.679Z,98.35
2018-04-10T04:23:05.612Z,98.35
2018-04-10T04:24:05.625Z,98.64
2018-04-10T04:25:05.606Z,99.21
2018-04-10T04:26:05.573Z,99.87
2018-04-10T04:27:05.542Z,99.77
2018-04-10T04:28:05.510Z,99.77
2018-04-10T04:29:05.492Z,99.99
2018-04-10T04:30:05.480Z,99.99
2018-04-10T04:31:05.435Z,99.97
2018-04-10T04:32:05.463Z,99.99
2018-04-10T04:33:05.396Z,99.99
2018-04-10T04:34:05.365Z,99.99
2018-04-10T04:35:05.345Z,99.99
2018-04-10T04:36:05.344Z,99.99
2018-04-10T04:37:05.329Z,99.99
2018-04-10T04:38:05.296Z,99.99
2018-04-10T04:39:05.316Z,99.99
2018-04-10T04:40:05.322Z,99.99
2018-04-10T04:41:05.279Z,99.99
2018-04-10T04:42:05.238Z,99.99
2018-04-10T04:43:05.208Z,99.99
2018-04-10T04:44:05.153Z,99.99
2018-04-10T04:45:05.167Z,99.99
2018-04-10T04:46:05.159Z,99.99
2018-04-10T04:47:05.105Z,99.99
2018-04-10T04:48:05.155Z,99.99
2018-04-10T04:49:05.071Z,99.99
2018-04-10T04:50:05.061Z,99.30
2018-04-10T04:51:05.047Z,99.40
2018-04-10T04:52:04.986Z,98.92
2018-04-10T04:53:04.977Z,98.83
2018-04-10T04:54:05.010Z,99.02
2018-04-10T04:55:04.954Z,98.92
2018-04-10T04:56:04.917Z,99.87
2018-04-10T04:57:04.905Z,99.68
2018-04-10T04:58:04.907Z,99.97
2018-04-10T04:59:04.871Z,99.77
2018-04-10T05:00:04.874Z,99.58
2018-04-10T05:01:04.827Z,99.49
2018-04-10T05:02:04.787Z,99.49
2018-04-10T05:03:04.771Z,99.11
2018-04-10T05:04:04.756Z,99.11
2018-04-10T05:05:04.724Z,99.11
2018-04-10T05:06:04.741Z,99.11
2018-04-10T05:07:04.738Z,99.49
2018-04-10T05:08:04.651Z,99.58
2018-04-10T05:09:04.652Z,99.11
2018-04-10T05:10:04.607Z,98.73
2018-04-10T05:11:04.608Z,98.92
2018-04-10T05:12:04.616Z,98.73
2018-04-10T05:13:04.555Z,97.97
2018-04-10T05:14:04.562Z,97.50
2018-04-10T05:15:04.578Z,97.41
2018-04-10T05:16:04.543Z,97.60
2018-04-10T05:17:04.489Z,97.88
2018-04-10T05:18:04.502Z,97.69
2018-04-10T05:19:04.458Z,98.21
2018-04-10T05:20:04.429Z,97.74
2018-04-10T05:21:04.384Z,98.40
2018-04-10T05:22:04.389Z,98.59
2018-04-10T05:23:04.351Z,98.40
2018-04-10T05:24:04.393Z,98.59
2018-04-10T05:25:04.377Z,98.79
2018-04-10T05:26:04.294Z,98.79
2018-04-10T05:27:04.330Z,98.59
2018-04-10T05:28:04.266Z,98.79
2018-04-10T05:29:04.266Z,98.50
2018-04-10T05:30:04.220Z,97.69
2018-04-10T05:31:04.232Z,97.69
2018-04-10T05:32:04.167Z,97.22
2018-04-10T05:33:04.156Z,97.78
2018-04-10T05:34:04.159Z,97.12
2018-04-10T05:35:04.156Z,97.41
2018-04-10T05:36:04.084Z,96.84
2018-04-10T05:37:04.056Z,96.93
2018-04-10T05:38:04.053Z,96.93
2018-04-10T05:39:04.070Z,96.45
2018-04-10T05:40:04.007Z,96.26
2018-04-10T05:41:04.015Z,95.89
2018-04-10T05:42:03.959Z,95.89
2018-04-10T05:43:03.934Z,96.17
2018-04-10T05:44:03.952Z,96.08
2018-04-10T05:45:03.941Z,96.22
2018-04-10T05:46:03.861Z,96.31
2018-04-10T05:47:03.915Z,96.50
2018-04-10T05:48:03.869Z,96.03
2018-04-10T05:49:03.809Z,95.65
2018-04-10T05:50:03.819Z,95.36
2018-04-10T05:51:03.774Z,95.17
2018-04-10T05:52:03.760Z,94.89
2018-04-10T05:53:03.721Z,94.79
2018-04-10T05:54:03.711Z,94.32
2018-04-10T05:55:03.747Z,94.32
2018-04-10T05:56:03.703Z,94.65
2018-04-10T05:57:03.667Z,94.27
2018-04-10T05:58:03.695Z,93.70
2018-04-10T05:59:03.624Z,93.98
2018-04-10T06:00:03.630Z,93.32
2018-04-10T06:01:03.579Z,92.65
2018-04-10T06:02:03.558Z,92.36
2018-04-10T06:03:03.526Z,92.36
2018-04-10T06:04:03.555Z,91.70
2018-04-10T06:05:03.491Z,91.94
2018-04-10T06:06:03.465Z,91.08
2018-04-10T06:07:03.458Z,90.61
2018-04-10T06:08:03.428Z,90.03
2018-04-10T06:09:03.422Z,90.08
2018-04-10T06:10:03.411Z,89.22
2018-04-10T06:11:03.369Z,88.41
2018-04-10T06:12:03.346Z,88.12
2018-04-10T06:13:03.324Z,87.21
2018-04-10T06:14:03.315Z,86.16
2018-04-10T06:15:03.316Z,85.45
2018-04-10T06:16:03.321Z,83.96
2018-04-10T06:17:03.316Z,81.76
2018-04-10T06:18:03.247Z,80.07
2018-04-10T06:19:03.207Z,77.57
2018-04-10T06:20:03.217Z,75.64
2018-04-10T06:21:03.207Z,73.90
2018-04-10T06:22:03.171Z,71.15
2018-04-10T06:23:03.141Z,69.07
2018-04-10T06:24:03.152Z,65.36
2018-04-10T06:25:03.114Z,63.28
2018-04-10T06:26:03.120Z,62.07
2018-04-10T06:27:03.125Z,61.30
2018-04-10T06:28:03.040Z,60.56
2018-04-10T06:29:03.029Z,59.53
2018-04-10T06:30:03.032Z,57.99
2018-04-10T06:31:02.995Z,56.32
2018-04-10T06:32:02.959Z,53.94
2018-04-10T06:33:02.957Z,51.94
2018-04-10T06:34:02.954Z,51.84
2018-04-10T06:35:02.925Z,50.71
2018-04-10T06:36:02.894Z,49.75
2018-04-10T06:37:02.892Z,49.00
2018-04-10T06:38:02.863Z,47.96
2018-04-10T06:39:02.844Z,47.12
2018-04-10T06:40:02.829Z,45.76
2018-04-10T06:41:02.805Z,44.24
2018-04-10T06:42:02.804Z,44.07
2018-04-10T06:43:02.767Z,43.32
2018-04-10T06:44:02.755Z,42.16
2018-04-10T06:45:02.755Z,40.90
2018-04-10T06:46:02.732Z,39.94
2018-04-10T06:47:02.729Z,39.06
2018-04-10T06:48:02.714Z,39.16
2018-04-10T06:49:02.680Z,39.62
2018-04-10T06:50:02.660Z,40.38
2018-04-10T06:51:02.670Z,41.42
2018-04-10T06:52:02.654Z,42.05
2018-04-10T06:53:02.640Z,42.83
2018-04-10T06:54:02.626Z,42.85
2018-04-10T06:55:02.607Z,42.36
2018-04-10T06:56:02.586Z,42.83
2018-04-10T06:57:02.559Z,43.29
2018-04-10T06:58:02.564Z,43.94
2018-04-10T06:59:02.531Z,43.94
2018-04-10T07:00:02.517Z,45.39
2018-04-10T07:01:02.508Z,45.75
2018-04-10T07:02:02.501Z,46.81
2018-04-10T07:03:02.479Z,45.77
2018-04-10T07:04:02.464Z,45.51
2018-04-10T07:05:02.459Z,44.64
2018-04-10T07:06:02.442Z,44.46
2018-04-10T07:07:02.466Z,43.62
2018-04-10T07:08:02.428Z,42.85
2018-04-10T07:09:02.427Z,42.85
2018-04-10T07:10:03.245Z,42.85
2018-04-10T07:11:02.353Z,42.46
2018-04-10T07:12:02.344Z,42.93
2018-04-10T07:13:02.347Z,43.31
2018-04-10T07:14:02.336Z,43.43
2018-04-10T07:15:02.310Z,42.68
2018-04-10T07:16:02.293Z,41.52
2018-04-10T07:17:02.269Z,41.52
2018-04-10T07:18:02.256Z,41.44
2018-04-10T07:19:02.269Z,40.59
2018-04-10T07:20:02.257Z,39.76
2018-04-10T07:21:02.244Z,39.01
2018-04-10T07:22:02.217Z,37.96
2018-04-10T07:23:02.202Z,36.93
2018-04-10T07:24:02.194Z,36.00
2018-04-10T07:25:02.140Z,34.56
2018-04-10T07:26:02.160Z,33.41
2018-04-10T07:27:02.166Z,31.87
2018-04-10T07:28:02.159Z,32.08
2018-04-10T07:29:02.145Z,31.22
2018-04-10T07:30:02.107Z,30.74
2018-04-10T07:31:02.112Z,30.38
2018-04-10T07:32:02.125Z,29.61
2018-04-10T07:33:02.052Z,29.64
2018-04-10T07:34:02.101Z,28.68
2018-04-10T07:35:02.037Z,27.62
2018-04-10T07:36:02.052Z,26.28
2018-04-10T07:37:02.009Z,26.10
2018-04-10T07:38:02.007Z,25.13
2018-04-10T07:39:01.998Z,23.86
2018-04-10T07:40:01.978Z,23.94
2018-04-10T07:41:01.992Z,23.64
2018-04-10T07:42:01.947Z,23.64
2018-04-10T07:43:01.948Z,23.65
2018-04-10T07:44:01.968Z,23.55
2018-04-10T07:45:01.948Z,24.15
2018-04-10T07:46:01.938Z,23.09
2018-04-10T07:47:01.896Z,22.70
2018-04-10T07:48:01.909Z,22.51
2018-04-10T07:49:01.909Z,22.13
2018-04-10T07:50:01.930Z,21.25
2018-04-10T07:51:01.907Z,21.45
2018-04-10T07:52:01.921Z,21.84
2018-04-10T07:53:01.914Z,21.85
2018-04-10T07:54:01.862Z,21.86
2018-04-10T07:55:01.853Z,21.09
2018-04-10T07:56:01.884Z,20.61
2018-04-10T07:57:01.820Z,19.62
2018-04-10T07:58:01.857Z,19.62
2018-04-10T07:59:01.817Z,19.51
2018-04-10T08:00:01.809Z,19.62
2018-04-10T08:01:01.812Z,19.64
2018-04-10T08:02:01.790Z,19.45
2018-04-10T08:03:01.813Z,19.25
2018-04-10T08:04:01.788Z,19.17
2018-04-10T08:05:01.788Z,18.79
2018-04-10T08:06:01.776Z,18.19
2018-04-10T08:07:01.756Z,17.50
2018-04-10T08:08:01.751Z,17.12
2018-04-10T08:09:01.733Z,17.52
2018-04-10T08:10:01.744Z,17.52
2018-04-10T08:11:01.743Z,17.43
2018-04-10T08:12:01.748Z,17.04
2018-04-10T08:13:01.728Z,16.75
2018-04-10T08:14:01.688Z,16.36
2018-04-10T08:15:01.719Z,16.17
2018-04-10T08:16:01.729Z,15.97
2018-04-10T08:17:01.722Z,15.77
2018-04-10T08:18:01.716Z,15.86
2018-04-10T08:19:01.727Z,15.97
2018-04-10T08:20:01.694Z,16.27
2018-04-10T08:21:01.666Z,15.67
2018-04-10T08:22:01.699Z,15.88
2018-04-10T08:23:01.690Z,15.08
2018-04-10T08:24:01.659Z,15.77
2018-04-10T08:25:01.637Z,16.06
2018-04-10T08:26:01.653Z,16.06
2018-04-10T08:27:01.650Z,16.17
2018-04-10T08:28:01.608Z,15.39
2018-04-10T08:29:01.657Z,14.99
2018-04-10T08:30:01.616Z,15.29
2018-04-10T08:31:01.640Z,14.80
2018-04-10T08:32:01.613Z,14.80
2018-04-10T08:33:01.624Z,15.11
2018-04-10T08:34:01.601Z,14.82
2018-04-10T08:35:01.640Z,14.12
2018-04-10T08:36:01.591Z,14.83
2018-04-10T08:37:01.589Z,14.93
2018-04-10T08:38:01.673Z,14.43
2018-04-10T08:39:01.588Z,13.45
2018-04-10T08:40:01.593Z,13.35
2018-04-10T08:41:01.599Z,14.04
2018-04-10T08:42:01.578Z,13.25
2018-04-10T08:43:01.541Z,13.24
2018-04-10T08:44:01.566Z,13.44
2018-04-10T08:45:01.540Z,13.74
2018-04-10T08:46:01.562Z,13.54
2018-04-10T08:47:01.550Z,13.45
2018-04-10T08:48:01.541Z,13.65
2018-04-10T08:49:01.539Z,12.86
2018-04-10T08:50:01.539Z,12.96
2018-04-10T08:51:01.528Z,12.96
2018-04-10T08:52:01.550Z,12.96
2018-04-10T08:53:01.514Z,12.37
2018-04-10T08:54:01.635Z,12.96
2018-04-10T08:55:01.602Z,13.15
2018-04-10T08:56:01.763Z,13.94
2018-04-10T08:57:01.642Z,12.95
2018-04-10T08:58:01.726Z,13.24
2018-04-10T08:59:01.565Z,12.75
2018-04-10T09:00:01.511Z,13.15
2018-04-10T09:01:01.550Z,13.24
2018-04-10T09:02:01.541Z,13.54
2018-04-10T09:03:01.585Z,13.24
2018-04-10T09:04:01.552Z,13.34
2018-04-10T09:05:01.563Z,12.85
2018-04-10T09:06:01.538Z,13.65
2018-04-10T09:07:01.524Z,13.64
2018-04-10T09:08:01.521Z,13.65
2018-04-10T09:09:01.523Z,13.26
2018-04-10T09:10:01.530Z,12.67
2018-04-10T09:11:01.519Z,12.37
2018-04-10T09:12:01.542Z,11.88
2018-04-10T09:13:01.518Z,11.99
2018-04-10T09:14:01.523Z,12.70
2018-04-10T09:15:01.525Z,12.40
2018-04-10T09:16:01.482Z,12.00
2018-04-10T09:17:01.549Z,11.70
2018-04-10T09:18:01.495Z,11.61
2018-04-10T09:19:01.510Z,11.90
2018-04-10T09:20:01.493Z,11.51
2018-04-10T09:21:01.479Z,11.89
2018-04-10T09:22:01.503Z,12.66
2018-04-10T09:23:01.463Z,13.15
2018-04-10T09:24:01.479Z,13.05
2018-04-10T09:25:01.486Z,12.96
2018-04-10T09:26:01.484Z,12.77
2018-04-10T09:27:01.496Z,12.48
2018-04-10T09:28:01.493Z,12.19
2018-04-10T09:29:01.487Z,12.19
2018-04-10T09:30:01.488Z,12.19
2018-04-10T09:31:01.481Z,12.49
2018-04-10T09:32:01.497Z,11.81
2018-04-10T09:33:01.490Z,11.81
2018-04-10T09:34:01.466Z,11.02
2018-04-10T09:35:01.484Z,11.11
2018-04-10T09:36:01.459Z,11.61
2018-04-10T09:37:01.490Z,11.52
2018-04-10T09:38:01.476Z,11.12
2018-04-10T09:39:01.474Z,10.73
2018-04-10T09:40:01.506Z,10.83
2018-04-10T09:41:01.498Z,11.04
2018-04-10T09:42:01.523Z,10.35
2018-04-10T09:43:01.495Z,9.85
2018-04-10T09:44:01.495Z,10.15
2018-04-10T09:45:01.475Z,9.95
2018-04-10T09:46:01.482Z,10.35
2018-04-10T09:47:01.483Z,10.25
2018-04-10T09:48:01.492Z,10.06
2018-04-10T09:49:01.490Z,10.06
2018-04-10T09:50:01.454Z,9.17
2018-04-10T09:51:01.562Z,8.97
2018-04-10T09:52:01.490Z,8.87
2018-04-10T09:53:01.517Z,9.67
2018-04-10T09:54:01.462Z,8.97
2018-04-10T09:55:01.488Z,9.76
2018-04-10T09:56:01.532Z,10.05
2018-04-10T09:57:01.523Z,9.45
2018-04-10T09:58:01.502Z,8.75
2018-04-10T09:59:01.497Z,9.55
2018-04-10T10:00:01.492Z,9.75
2018-04-10T10:01:01.531Z,9.96
2018-04-10T10:02:01.545Z,9.87
2018-04-10T10:03:01.505Z,9.67
2018-04-10T10:04:01.513Z,9.47
2018-04-10T10:05:01.523Z,8.67
2018-04-10T10:06:01.530Z,8.48
2018-04-10T10:07:01.576Z,8.39
2018-04-10T10:08:01.557Z,8.59
2018-04-10T10:09:01.522Z,8.39
2018-04-10T10:10:01.552Z,7.99
2018-04-10T10:11:01.579Z,8.29
2018-04-10T10:12:01.494Z,8.19
2018-04-10T10:13:01.534Z,7.99
2018-04-10T10:14:01.521Z,8.29
2018-04-10T10:15:01.528Z,8.49
2018-04-10T10:16:01.515Z,8.59
2018-04-10T10:17:01.530Z,8.00
2018-04-10T10:18:01.496Z,7.90
2018-04-10T10:19:01.588Z,8.00
2018-04-10T10:20:01.554Z,7.60
2018-04-10T10:21:01.572Z,8.00
2018-04-10T10:22:01.627Z,7.90
2018-04-10T10:23:01.602Z,7.59
2018-04-10T10:24:01.526Z,7.88
2018-04-10T10:25:01.583Z,8.18
2018-04-10T10:26:01.589Z,8.28
2018-04-10T10:27:01.513Z,8.07
2018-04-10T10:28:01.538Z,8.97
2018-04-10T10:29:01.566Z,8.57
2018-04-10T10:30:01.540Z,9.27
2018-04-10T10:31:01.577Z,8.07
2018-04-10T10:32:01.539Z,9.08
2018-04-10T10:33:01.629Z,7.98
2018-04-10T10:34:01.537Z,8.07
2018-04-10T10:35:01.550Z,8.67
2018-04-10T10:36:01.556Z,9.07
2018-04-10T10:37:01.546Z,9.08
2018-04-10T10:38:01.564Z,9.17
2018-04-10T10:39:01.589Z,7.58
2018-04-10T10:40:01.580Z,7.57
2018-04-10T10:41:01.543Z,8.07
2018-04-10T10:42:01.610Z,8.57
2018-04-10T10:43:01.563Z,8.97
2018-04-10T10:44:01.576Z,8.48
2018-04-10T10:45:01.586Z,8.48
2018-04-10T10:46:01.570Z,7.68
2018-04-10T10:47:01.588Z,7.39
2018-04-10T10:48:01.636Z,7.39
2018-04-10T10:49:01.590Z,7.68
2018-04-10T10:50:01.603Z,7.99
2018-04-10T10:51:01.592Z,7.39
2018-04-10T10:52:01.618Z,6.99
2018-04-10T10:53:01.597Z,7.29
2018-04-10T10:54:01.631Z,7.68
2018-04-10T10:55:01.626Z,8.18
2018-04-10T10:56:01.642Z,7.98
2018-04-10T10:57:01.622Z,8.28
2018-04-10T10:58:01.663Z,8.19
2018-04-10T10:59:01.627Z,7.89
2018-04-10T11:00:01.633Z,6.99
2018-04-10T11:01:01.668Z,7.10
2018-04-10T11:02:01.640Z,7.40
2018-04-10T11:03:01.656Z,7.10
2018-04-10T11:04:01.662Z,6.10
2018-04-10T11:05:01.876Z,6.60
2018-04-10T11:06:02.048Z,6.31
2018-04-10T11:07:01.851Z,6.11
2018-04-10T11:08:02.537Z,6.31
2018-04-10T11:09:02.110Z,6.31
2018-04-10T11:10:01.833Z,6.21
2018-04-10T11:11:01.746Z,5.91
2018-04-10T11:12:01.701Z,5.81
2018-04-10T11:13:01.718Z,5.91
2018-04-10T11:14:01.707Z,5.61
2018-04-10T11:15:01.687Z,5.71
2018-04-10T11:16:01.724Z,5.40
2018-04-10T11:17:01.693Z,5.80
2018-04-10T11:18:01.699Z,6.21
2018-04-10T11:19:01.850Z,6.11
2018-04-10T11:20:01.717Z,5.71
2018-04-10T11:21:01.746Z,5.61
2018-04-10T11:22:01.738Z,6.01
2018-04-10T11:23:01.732Z,6.21
2018-04-10T11:24:01.761Z,6.32
2018-04-10T11:25:01.724Z,5.81
2018-04-10T11:26:01.743Z,6.31
2018-04-10T11:27:01.778Z,5.40
2018-04-10T11:28:01.737Z,5.90
2018-04-10T11:29:01.767Z,6.30
2018-04-10T11:30:01.793Z,6.41
2018-04-10T11:31:01.755Z,6.11
2018-04-10T11:32:01.770Z,6.11
2018-04-10T11:33:01.754Z,6.01
2018-04-10T11:34:01.775Z,5.90
2018-04-10T11:35:01.771Z,6.11
2018-04-10T11:36:01.793Z,6.11
2018-04-10T11:37:02.699Z,5.40
2018-04-10T11:38:01.823Z,6.10
2018-04-10T11:39:01.809Z,6.70
2018-04-10T11:40:01.810Z,6.60
2018-04-10T11:41:01.798Z,5.91
2018-04-10T11:42:01.835Z,6.01
2018-04-10T11:43:01.846Z,5.61
2018-04-10T11:44:01.831Z,5.61
2018-04-10T11:45:01.840Z,5.30
2018-04-10T11:46:01.843Z,5.90
2018-04-10T11:47:01.842Z,5.00
2018-04-10T11:48:01.846Z,5.90
2018-04-10T11:49:01.910Z,6.50
2018-04-10T11:50:01.915Z,6.20
2018-04-10T11:51:01.861Z,5.90
2018-04-10T11:52:01.888Z,5.71
2018-04-10T11:53:01.874Z,4.81
2018-04-10T11:54:01.936Z,5.21
2018-04-10T11:55:01.908Z,5.71
2018-04-10T11:56:01.882Z,5.31
2018-04-10T11:57:01.889Z,5.51
2018-04-10T11:58:01.895Z,5.00
2018-04-10T11:59:01.903Z,5.30
2018-04-10T12:00:01.938Z,6.10
2018-04-10T12:01:01.916Z,6.79
2018-04-10T12:02:01.902Z,6.19
2018-04-10T12:03:01.915Z,6.59
2018-04-10T12:04:01.917Z,6.39
2018-04-10T12:05:01.928Z,6.49
2018-04-10T12:06:01.908Z,6.09
2018-04-10T12:07:01.933Z,6.19
2018-04-10T12:08:02.055Z,6.79
2018-04-10T12:09:01.918Z,6.29
2018-04-10T12:10:01.936Z,6.79
2018-04-10T12:11:01.929Z,7.29
2018-04-10T12:12:01.920Z,7.00
2018-04-10T12:13:01.939Z,6.40
2018-04-10T12:14:01.934Z,6.30
2018-04-10T12:15:01.968Z,5.90
2018-04-10T12:16:02.034Z,6.21
2018-04-10T12:17:01.954Z,5.51
2018-04-10T12:18:01.951Z,5.80
2018-04-10T12:19:01.970Z,5.80
2018-04-10T12:20:01.987Z,6.21
2018-04-10T12:21:01.997Z,5.41
2018-04-10T12:22:01.984Z,5.40
2018-04-10T12:23:02.004Z,5.40
2018-04-10T12:24:02.044Z,5.30
2018-04-10T12:25:01.988Z,5.60
2018-04-10T12:26:02.015Z,5.99
2018-04-10T12:27:02.007Z,6.40
2018-04-10T12:28:02.005Z,6.29
2018-04-10T12:29:02.002Z,5.90
2018-04-10T12:30:02.031Z,6.70
2018-04-10T12:31:02.028Z,6.20
2018-04-10T12:32:02.046Z,6.30
2018-04-10T12:33:02.035Z,6.10
2018-04-10T12:34:02.028Z,5.90
2018-04-10T12:35:02.034Z,6.30
2018-04-10T12:36:02.047Z,6.81
2018-04-10T12:37:02.039Z,5.41
2018-04-10T12:38:02.047Z,6.01
2018-04-10T12:39:02.058Z,6.10
2018-04-10T12:40:02.027Z,5.99
2018-04-10T12:41:02.078Z,6.20
2018-04-10T12:42:02.060Z,6.20
2018-04-10T12:43:02.147Z,6.10
2018-04-10T12:44:02.099Z,6.90
2018-04-10T12:45:02.086Z,7.50
2018-04-10T12:46:02.104Z,7.40
2018-04-10T12:47:02.117Z,6.49
2018-04-10T12:48:02.072Z,8.19
2018-04-10T12:49:02.107Z,7.69
2018-04-10T12:50:02.096Z,7.79
2018-04-10T12:51:02.104Z,7.98
2018-04-10T12:52:02.147Z,7.67
2018-04-10T12:53:02.107Z,7.87
2018-04-10T12:54:02.113Z,7.57
2018-04-10T12:55:02.162Z,7.57
2018-04-10T12:56:02.126Z,8.37
2018-04-10T12:57:02.121Z,8.07
2018-04-10T12:58:02.157Z,8.47
2018-04-10T12:59:02.210Z,7.87
2018-04-10T13:00:02.126Z,8.27